Aeroporto :
LOGIN :

Iscrizione | Disclaimer

   EN    FR    IT 

 










Sommario :    VFR   VFR Marginale   IFR   IFR Intensivo   IFR Molto Intensivo
Visibilità : 
Base nubi : 
>= 8 km
>= 3000ft
5 / 8 km
1000 / 3000 ft
1500m / 5 km
500 / 1000 ft
800 / 1500m
200 / 500 ft
< 800m
< 200 ft
Simboli :   Temporali  Nebbia  Neve Forte  Precipitazioni Forti  Vento > 20 kt
SIGMETs :   Varie  Temporali  Ghiacco  Turbolenza  Onda orograficha  Ceneri Vulcaniche






- Altitudine del aeroporto : -11 ft
- Codice IATA : AMS


EHAM - Amsterdam Schiphol

ULTIMO METAR :
  • 271725Z 16010KT 9999 -RADZ FEW008 SCT012 BKN014 07/06 Q1013 TEMPO 6000 BKN008

METARs OBSOLETI :
  • 271655Z 16009KT 9999 -RADZ FEW008 SCT010 BKN014 07/06 Q1013 TEMPO 6000 BKN008
  • 271625Z 16009KT 130V190 9999 FEW008 SCT010 BKN014 07/06 Q1013 TEMPO 6000 -DZ BKN008
  • 271555Z 17010KT 9999 FEW007 SCT008 BKN012 07/06 Q1014 TEMPO 6000 -DZ BKN008
  • 271525Z 16010KT 130V200 9999 FEW006 SCT008 BKN012 07/06 Q1014 TEMPO 6000 -DZ BKN008
  • 271455Z 17011KT 9999 FEW005 SCT008 BKN010 07/06 Q1015 TEMPO 5000 -DZ BKN008

TAF TAF EHAM
Valido dal 27 a 18 ore il 29 a 00 ore UTC


271720Z 2718/2824 16010KT 9999 FEW008 BKN015
TEMPO 2718/2824 4500 -DZRA BKN008
BECMG 2723/2802 19007KT 6000 BKN012
PROB30
TEMPO 2801/2812 2500 DZ FEW003 BKN004
BECMG 2810/2813 VRB02KT 9999 SCT012
PROB40
TEMPO 2812/2824 2000 BR -RADZ BKN003
PROB30 2822/2824 0800 BCFG BKN001



MetMap, La meteo Aeronautica in un colpo d'occhio ! - Copyright ORBIFLY Dicembre 2007 - Disclaimer

ORBIFLY MET'MAP TEAM :

Programmazione e sviluppo : Alexandra Zaïnal
Concezione : Baudouin d'Aumeries
Supporto tecnico e logistico : Manuel Goepfert
Aiuto : Marc-Olivier Méhu
Aiuto per la traduzione : Arnaldo La Scala




FONTI E CREDITI :

   NOAA